createdAt,value
2023-01-17T00:01:09.730Z,2.03
2023-01-17T00:06:49.789Z,2.00
2023-01-17T00:12:11.565Z,1.25
2023-01-17T00:17:33.327Z,1.23
2023-01-17T00:23:13.616Z,1.85
2023-01-17T00:28:37.980Z,3.50
2023-01-17T00:33:59.680Z,3.40
2023-01-17T00:39:21.369Z,2.40
2023-01-17T00:45:01.749Z,3.47
2023-01-17T00:50:42.264Z,0.70
2023-01-17T00:56:22.716Z,0.50
2023-01-17T01:02:03.176Z,1.27
2023-01-17T01:07:43.788Z,2.35
2023-01-17T01:13:23.873Z,1.52
2023-01-17T01:19:04.461Z,0.38
2023-01-17T01:24:45.171Z,0.60
2023-01-17T01:30:26.117Z,2.33
2023-01-17T01:35:54.050Z,0.90
2023-01-17T01:41:16.349Z,0.73
2023-01-17T01:46:41.926Z,1.10
2023-01-17T01:52:06.995Z,0.55
2023-01-17T01:57:34.682Z,0.73
2023-01-17T02:03:00.511Z,1.00
2023-01-17T02:08:24.224Z,0.93
2023-01-17T02:13:46.052Z,0.55
2023-01-17T02:19:35.073Z,0.95
2023-01-17T02:25:22.893Z,0.55
2023-01-17T02:30:54.659Z,1.17
2023-01-17T02:36:22.665Z,0.68
2023-01-17T02:41:49.804Z,1.13
2023-01-17T02:47:26.346Z,0.65
2023-01-17T02:53:09.364Z,0.38
2023-01-17T02:58:49.651Z,0.10
2023-01-17T03:04:41.396Z,0.10
2023-01-17T03:10:05.710Z,0.22
2023-01-17T03:15:27.715Z,0.10
2023-01-17T03:20:49.543Z,0.65
2023-01-17T03:26:11.337Z,0.20
2023-01-17T03:31:33.119Z,0.40
2023-01-17T03:36:54.773Z,0.20
2023-01-17T03:42:16.645Z,0.20
2023-01-17T03:47:38.389Z,0.20
2023-01-17T03:53:00.208Z,0.50
2023-01-17T03:58:21.965Z,0.38
2023-01-17T04:03:43.683Z,0.30
2023-01-17T04:09:05.426Z,0.50
2023-01-17T04:14:27.123Z,0.17
2023-01-17T04:19:49.039Z,0.50
2023-01-17T04:25:10.781Z,0.10
2023-01-17T04:30:33.406Z,1.38
2023-01-17T04:35:55.677Z,0.10
2023-01-17T04:41:17.351Z,1.55
2023-01-17T04:46:39.049Z,0.40
2023-01-17T04:52:00.767Z,0.55
2023-01-17T04:57:22.552Z,0.38
2023-01-17T05:02:44.432Z,0.50
2023-01-17T05:08:06.160Z,0.77
2023-01-17T05:13:27.825Z,0.43
2023-01-17T05:18:53.632Z,0.25
2023-01-17T05:24:15.459Z,0.63
2023-01-17T05:29:37.243Z,0.40
2023-01-17T05:34:58.926Z,0.40
2023-01-17T05:40:23.422Z,0.68
2023-01-17T05:45:48.657Z,0.47
2023-01-17T05:51:10.354Z,1.20
2023-01-17T05:56:32.231Z,0.30
2023-01-17T06:01:54.485Z,0.98
2023-01-17T06:07:16.436Z,0.30
2023-01-17T06:12:38.283Z,0.60
2023-01-17T06:18:11.425Z,0.95
2023-01-17T06:23:33.163Z,0.10
2023-01-17T06:28:54.863Z,0.35
2023-01-17T06:34:16.816Z,0.20
2023-01-17T06:39:38.488Z,1.63
2023-01-17T06:45:00.220Z,1.23
2023-01-17T06:50:22.098Z,0.80
2023-01-17T06:55:43.905Z,0.30
2023-01-17T07:01:08.050Z,2.17
2023-01-17T07:06:29.936Z,1.92
2023-01-17T07:11:52.838Z,1.48
2023-01-17T07:17:14.562Z,3.30
2023-01-17T07:22:37.878Z,0.65
2023-01-17T07:28:00.309Z,2.08
2023-01-17T07:33:22.183Z,0.85
2023-01-17T07:38:46.850Z,4.00
2023-01-17T07:44:13.531Z,1.30
2023-01-17T07:49:35.330Z,1.10
2023-01-17T07:54:57.099Z,1.67
2023-01-17T08:00:19.629Z,2.20
2023-01-17T08:05:43.154Z,1.38
2023-01-17T08:11:04.973Z,2.78
2023-01-17T08:16:28.751Z,0.90
2023-01-17T08:21:50.581Z,0.47
2023-01-17T08:27:12.295Z,1.88
2023-01-17T08:32:34.709Z,3.25
2023-01-17T08:37:56.595Z,1.88
2023-01-17T08:43:19.295Z,0.98
2023-01-17T08:48:41.040Z,0.75
2023-01-17T08:54:02.748Z,3.83
2023-01-17T08:59:24.501Z,0.65
2023-01-17T09:04:50.056Z,1.17
2023-01-17T09:10:12.549Z,1.20
2023-01-17T09:15:34.277Z,1.20
2023-01-17T09:20:59.245Z,3.13
2023-01-17T09:26:30.632Z,1.23
2023-01-17T09:31:52.378Z,0.95
2023-01-17T09:37:14.107Z,1.52
2023-01-17T09:42:41.105Z,2.25
2023-01-17T09:48:09.095Z,3.72
2023-01-17T09:53:37.584Z,0.75
2023-01-17T09:59:32.757Z,1.50
2023-01-17T10:05:18.307Z,1.33
2023-01-17T10:10:42.325Z,1.25
2023-01-17T10:16:09.882Z,1.63
2023-01-17T10:21:49.696Z,1.30
2023-01-17T10:27:38.396Z,0.63
2023-01-17T10:33:04.472Z,7.78
2023-01-17T10:38:33.835Z,6.65
2023-01-17T10:43:55.869Z,1.45
2023-01-17T10:49:23.827Z,3.33
2023-01-17T10:54:45.508Z,5.90
2023-01-17T11:00:51.811Z,6.88
2023-01-17T11:06:19.667Z,6.40
2023-01-17T11:11:49.312Z,8.32
2023-01-17T11:17:12.643Z,6.05
2023-01-17T11:22:35.719Z,2.92
2023-01-17T11:28:01.968Z,9.05
2023-01-17T11:33:33.428Z,2.95
2023-01-17T11:39:27.598Z,1.63
2023-01-17T11:44:50.608Z,2.95
2023-01-17T11:50:26.483Z,6.10
2023-01-17T11:56:28.440Z,2.13
2023-01-17T12:02:02.578Z,6.10
2023-01-17T12:07:59.781Z,2.45
2023-01-17T12:14:03.402Z,2.70
2023-01-17T12:19:39.068Z,3.13
2023-01-17T12:25:38.066Z,2.67
2023-01-17T12:31:14.785Z,4.97
2023-01-17T12:36:49.665Z,1.20
2023-01-17T12:42:24.223Z,2.85
2023-01-17T12:47:54.616Z,1.75
2023-01-17T12:53:23.194Z,2.42
2023-01-17T12:58:50.585Z,3.33
2023-01-17T13:04:58.385Z,3.67
2023-01-17T13:10:23.302Z,2.22
2023-01-17T13:15:45.037Z,1.52
2023-01-17T13:21:09.430Z,0.82
2023-01-17T13:26:52.676Z,2.35
2023-01-17T13:32:49.678Z,3.35
2023-01-17T13:38:44.632Z,1.15
2023-01-17T13:44:22.069Z,0.60
2023-01-17T13:49:50.772Z,1.27
2023-01-17T13:55:45.708Z,0.50
2023-01-17T14:01:11.444Z,2.08
2023-01-17T14:06:36.302Z,1.63
2023-01-17T14:12:26.272Z,1.83
2023-01-17T14:17:56.042Z,1.35
2023-01-17T14:23:29.661Z,1.27
2023-01-17T14:28:52.091Z,1.33
2023-01-17T14:34:14.276Z,3.67
2023-01-17T14:39:47.640Z,0.82
2023-01-17T14:45:13.657Z,3.00
2023-01-17T14:50:37.939Z,1.10
2023-01-17T14:56:14.137Z,1.00
2023-01-17T15:07:00.076Z,2.58
2023-01-17T15:12:21.850Z,1.65
2023-01-17T15:17:43.502Z,2.05
2023-01-17T15:23:05.888Z,1.08
2023-01-17T15:28:29.206Z,1.38
2023-01-17T15:33:55.818Z,1.85
2023-01-17T15:39:33.540Z,3.65
2023-01-17T15:44:59.930Z,1.80
2023-01-17T15:50:23.823Z,2.35
2023-01-17T15:55:48.097Z,2.33
2023-01-17T16:01:17.509Z,1.52
2023-01-17T16:06:48.297Z,2.50
2023-01-17T16:12:10.347Z,3.67
2023-01-17T16:17:32.800Z,1.75
2023-01-17T16:22:54.514Z,0.50
2023-01-17T16:28:16.443Z,2.60
2023-01-17T16:33:39.524Z,0.95
2023-01-17T16:39:01.312Z,2.45
2023-01-17T16:44:23.046Z,2.42
2023-01-17T16:49:44.744Z,7.78
2023-01-17T16:55:10.283Z,4.80
2023-01-17T17:00:32.067Z,3.42
2023-01-17T17:05:59.816Z,6.40
2023-01-17T17:11:25.579Z,4.22
2023-01-17T17:16:47.709Z,4.95
2023-01-17T17:22:09.455Z,5.20
2023-01-17T17:27:31.360Z,3.28
2023-01-17T17:32:53.012Z,3.95
2023-01-17T17:38:14.700Z,3.15
2023-01-17T17:43:38.152Z,4.22
2023-01-17T17:49:00.289Z,2.35
2023-01-17T17:54:22.397Z,2.40
2023-01-17T17:59:44.098Z,16.52
2023-01-17T18:05:06.408Z,12.88
2023-01-17T18:10:28.532Z,14.35
2023-01-17T18:15:50.317Z,13.27
2023-01-17T18:21:15.081Z,14.27
2023-01-17T18:26:39.547Z,18.47
2023-01-17T18:32:01.244Z,6.22
2023-01-17T18:37:23.317Z,10.95
2023-01-17T18:42:44.975Z,11.15
2023-01-17T18:48:06.680Z,13.27
2023-01-17T18:53:33.844Z,11.48
2023-01-17T18:58:55.787Z,12.07
2023-01-17T19:04:18.995Z,12.07
2023-01-17T19:09:40.706Z,11.77
2023-01-17T19:15:02.503Z,7.07
2023-01-17T19:20:24.578Z,9.40
2023-01-17T19:25:46.728Z,6.68
2023-01-17T19:31:10.331Z,11.85
2023-01-17T19:36:34.716Z,9.93
2023-01-17T19:41:56.420Z,4.68
2023-01-17T19:47:18.243Z,7.53
2023-01-17T19:52:40.103Z,7.60
2023-01-17T19:58:01.824Z,5.72
2023-01-17T20:03:23.547Z,11.52
2023-01-17T20:08:45.481Z,11.13
2023-01-17T20:14:07.195Z,7.38
2023-01-17T20:19:29.070Z,6.78
2023-01-17T20:24:50.815Z,8.80
2023-01-17T20:30:20.132Z,12.75
2023-01-17T20:35:42.326Z,10.45
2023-01-17T20:41:03.978Z,9.60
2023-01-17T20:46:27.829Z,14.38
2023-01-17T20:51:50.090Z,18.88
2023-01-17T20:57:11.862Z,9.25
2023-01-17T21:02:33.689Z,7.57
2023-01-17T21:07:55.733Z,15.13
2023-01-17T21:13:17.645Z,10.48
2023-01-17T21:18:39.322Z,8.93
2023-01-17T21:24:01.148Z,11.88
2023-01-17T21:29:28.777Z,7.95
2023-01-17T21:34:52.411Z,4.53
2023-01-17T21:40:14.753Z,6.93
2023-01-17T21:45:37.858Z,8.80
2023-01-17T21:51:07.734Z,10.18
2023-01-17T21:56:48.352Z,6.88
2023-01-17T22:02:10.825Z,11.63
2023-01-17T22:07:32.633Z,7.47
2023-01-17T22:12:54.324Z,8.75
2023-01-17T22:18:16.221Z,8.63
2023-01-17T22:23:39.144Z,7.35
2023-01-17T22:29:02.428Z,5.63
2023-01-17T22:34:24.277Z,5.40
2023-01-17T22:39:46.061Z,6.63
2023-01-17T22:45:08.249Z,9.55
2023-01-17T22:50:29.946Z,4.03
2023-01-17T22:56:06.063Z,3.92
2023-01-17T23:01:32.980Z,3.95
2023-01-17T23:06:54.729Z,3.05
2023-01-17T23:12:16.407Z,4.03
2023-01-17T23:17:56.485Z,3.20
2023-01-17T23:23:18.148Z,3.20
2023-01-17T23:28:39.855Z,3.58
2023-01-17T23:34:01.560Z,7.03
2023-01-17T23:39:23.247Z,2.67
2023-01-17T23:44:45.019Z,5.38
2023-01-17T23:50:07.201Z,5.03
2023-01-17T23:55:28.880Z,3.40
